Time;durP1;ratioP1;P1;durP2;ratioP2;P2;SDS_P1;SDS_P2;PMS_P1;PMS_P2;Temp;Humidity;BMP_temperature;BMP_pressure;BME280_temperature;BME280_humidity;BME280_pressure;Samples;Min_cycle;Max_cycle;Signal;HPM_P1;HPM_P2
2022/12/05 00:01:38;;;;;;;4.10;2.85;;;;;;;-1.85;79.60;102839.93;1781097;78;25735;-61
2022/12/05 00:04:12;;;;;;;6.58;3.85;;;;;;;-1.85;79.72;102849.16;1818303;78;25758;-61
2022/12/05 00:06:41;;;;;;;7.72;3.98;;;;;;;-1.88;79.77;102843.43;1800915;78;25720;-61
2022/12/05 00:09:10;;;;;;;5.12;3.30;;;;;;;-1.92;79.91;102840.38;1777265;80;27469;-61
2022/12/05 00:11:39;;;;;;;7.12;3.62;;;;;;;-1.94;79.86;102839.08;1802528;78;25802;-61
2022/12/05 00:14:08;;;;;;;3.77;2.90;;;;;;;-1.92;79.97;102835.97;1822070;78;25698;-61
2022/12/05 00:16:38;;;;;;;3.75;2.98;;;;;;;-1.92;79.91;102836.42;1782123;78;25513;-61
2022/12/05 00:19:07;;;;;;;3.77;3.08;;;;;;;-1.92;79.91;102833.78;1790773;79;25726;-61
2022/12/05 00:21:36;;;;;;;4.45;3.25;;;;;;;-1.93;80.15;102845.22;1797946;79;27112;-61
2022/12/05 00:24:06;;;;;;;4.53;2.83;;;;;;;-1.94;80.08;102848.31;1796023;79;26178;-62
2022/12/05 00:26:35;;;;;;;4.67;3.20;;;;;;;-1.91;80.14;102841.69;1790313;79;36625;-61
2022/12/05 00:29:02;;;;;;;5.00;3.08;;;;;;;-1.90;80.11;102842.58;1774803;79;25710;-61
2022/12/05 00:31:28;;;;;;;4.87;3.22;;;;;;;-1.90;80.10;102840.80;1797684;79;25716;-61
2022/12/05 00:34:00;;;;;;;5.05;3.05;;;;;;;-1.90;80.01;102844.77;1791798;79;27464;-61
2022/12/05 00:36:30;;;;;;;5.47;3.37;;;;;;;-1.90;80.06;102850.04;1795200;79;25674;-61
2022/12/05 00:39:00;;;;;;;3.35;2.58;;;;;;;-1.89;80.16;102846.52;1772546;79;25777;-62
2022/12/05 00:41:28;;;;;;;5.30;3.30;;;;;;;-1.90;80.19;102844.77;1762357;81;25704;-61
2022/12/05 00:43:58;;;;;;;7.00;3.12;;;;;;;-1.90;80.19;102843.91;1791916;80;25694;-61
2022/12/05 00:46:29;;;;;;;4.83;3.00;;;;;;;-1.93;80.30;102851.81;1792014;79;27646;-62
2022/12/05 00:48:59;;;;;;;6.42;4.10;;;;;;;-1.96;80.52;102848.75;1791742;79;25939;-62
2022/12/05 00:51:33;;;;;;;5.58;3.15;;;;;;;-1.95;80.61;102849.61;1763335;80;25756;-62
2022/12/05 00:54:04;;;;;;;5.85;4.03;;;;;;;-1.94;80.69;102845.67;1760610;81;26312;-61
2022/12/05 00:56:32;;;;;;;3.30;3.00;;;;;;;-1.87;80.72;102841.69;1777872;80;25754;-61
2022/12/05 00:59:00;;;;;;;3.12;2.80;;;;;;;-1.87;80.53;102845.64;1764827;81;27513;-61
2022/12/05 01:01:34;;;;;;;4.03;2.85;;;;;;;-1.89;80.64;102839.92;1790578;79;25791;-61
2022/12/05 01:04:06;;;;;;;4.67;3.40;;;;;;;-1.86;80.54;102846.08;1755445;81;25994;-61
2022/12/05 01:06:33;;;;;;;7.70;3.30;;;;;;;-1.86;80.59;102844.77;1788267;79;25504;-61
2022/12/05 01:09:00;;;;;;;4.37;3.17;;;;;;;-1.84;80.56;102843.87;1788457;78;27412;-61
2022/12/05 01:11:27;;;;;;;3.98;2.75;;;;;;;-1.78;80.35;102849.12;1789225;79;27489;-61
2022/12/05 01:13:55;;;;;;;4.17;2.85;;;;;;;-1.77;80.33;102840.32;1763417;80;25461;-61
2022/12/05 01:16:29;;;;;;;5.53;4.15;;;;;;;-1.75;80.31;102844.30;1791853;79;25836;-61
2022/12/05 01:18:58;;;;;;;3.25;2.83;;;;;;;-1.77;80.21;102840.32;1792345;79;25600;-61
2022/12/05 01:21:25;;;;;;;5.87;2.70;;;;;;;-1.77;80.26;102839.45;1765344;80;25814;-61
2022/12/05 01:23:52;;;;;;;6.33;2.75;;;;;;;-1.74;80.21;102836.36;1761917;81;29612;-61
2022/12/05 01:26:21;;;;;;;3.98;2.77;;;;;;;-1.78;80.15;102837.24;1776056;80;25525;-61
2022/12/05 01:28:50;;;;;;;5.55;2.47;;;;;;;-1.77;80.19;102834.18;1781176;80;25817;-61
2022/12/05 01:31:33;;;;;;;4.05;2.92;;;;;;;-1.78;80.15;102833.74;1754771;79;26039;-61
2022/12/05 01:34:03;;;;;;;3.37;3.07;;;;;;;-1.77;80.15;102838.14;1738053;80;26006;-61
2022/12/05 01:36:31;;;;;;;3.62;3.20;;;;;;;-1.72;80.09;102836.34;1784680;78;28200;-61
2022/12/05 01:38:59;;;;;;;6.42;3.25;;;;;;;-1.74;80.04;102828.87;1812340;77;25768;-61
2022/12/05 01:41:30;;;;;;;4.28;2.87;;;;;;;-1.72;80.15;102828.88;1805932;77;25787;-61
2022/12/05 01:44:07;;;;;;;3.65;2.83;;;;;;;-1.75;80.03;102825.37;1793185;78;26347;-61
2022/12/05 01:46:37;;;;;;;4.95;3.08;;;;;;;-1.74;80.03;102822.27;1774974;80;25712;-61
2022/12/05 01:49:13;;;;;;;4.42;3.15;;;;;;;-1.74;80.07;102831.09;1793266;80;27476;-61
2022/12/05 01:51:47;;;;;;;4.35;3.20;;;;;;;-1.73;79.90;102827.98;1809200;78;25840;-61
2022/12/05 01:54:17;;;;;;;4.20;3.10;;;;;;;-1.73;79.99;102825.35;1787657;79;26487;-61
2022/12/05 01:56:49;;;;;;;6.08;3.30;;;;;;;-1.68;79.96;102819.63;1789219;79;25725;-61
2022/12/05 01:59:18;;;;;;;4.60;3.37;;;;;;;-1.70;79.95;102814.80;1788669;80;26550;-61
2022/12/05 02:01:45;;;;;;;3.95;3.35;;;;;;;-1.68;79.97;102821.38;1790443;80;27585;-61
2022/12/05 02:04:13;;;;;;;5.37;3.67;;;;;;;-1.69;79.96;102812.59;1799270;79;25730;-61
2022/12/05 02:06:40;;;;;;;3.80;2.95;;;;;;;-1.67;79.93;102810.83;1791059;79;25726;-61
2022/12/05 02:09:07;;;;;;;5.03;3.70;;;;;;;-1.71;79.89;102807.76;1799432;79;26135;-61
2022/12/05 02:11:38;;;;;;;6.53;3.95;;;;;;;-1.74;80.02;102810.40;1784736;79;25737;-61
2022/12/05 02:14:25;;;;;;;6.20;4.20;;;;;;;-1.73;80.02;102805.56;1767583;79;27702;-61
2022/12/05 02:17:24;;;;;;;5.37;3.35;;;;;;;-1.71;79.98;102805.58;1798618;79;25754;-61
2022/12/05 02:20:13;;;;;;;5.30;4.05;;;;;;;-1.71;80.09;102806.89;1799513;79;25733;-61
2022/12/05 02:22:51;;;;;;;8.33;3.72;;;;;;;-1.73;80.05;102797.64;1798361;79;25631;-61
2022/12/05 02:25:39;;;;;;;7.08;4.28;;;;;;;-1.74;80.07;102794.14;1787737;79;25815;-61
2022/12/05 02:28:32;;;;;;;10.80;4.55;;;;;;;-1.75;80.08;102795.02;1774390;79;27349;-61
2022/12/05 02:31:23;;;;;;;7.12;4.53;;;;;;;-1.76;80.20;102794.59;1797882;79;25838;-61
2022/12/05 02:33:59;;;;;;;7.60;4.97;;;;;;;-1.76;80.07;102790.62;1764068;81;25738;-61
2022/12/05 02:36:46;;;;;;;7.53;4.60;;;;;;;-1.80;80.19;102788.00;1767433;80;25748;-61
2022/12/05 02:39:47;;;;;;;6.50;4.45;;;;;;;-1.82;79.99;102784.06;1793404;80;25504;-61
2022/12/05 02:42:22;;;;;;;10.63;4.75;;;;;;;-1.84;80.30;102791.56;1775124;80;27485;-61
2022/12/05 02:44:57;;;;;;;6.92;4.42;;;;;;;-1.90;80.31;102792.00;1761104;80;25905;-61
2022/12/05 02:47:28;;;;;;;7.00;4.53;;;;;;;-1.90;80.46;102788.50;1760100;80;25894;-61
2022/12/05 02:49:56;;;;;;;8.55;4.55;;;;;;;-1.94;80.59;102792.91;1791480;80;26429;-61
2022/12/05 02:52:25;;;;;;;10.15;5.22;;;;;;;-1.95;80.62;102791.58;1792023;80;25480;-61
2022/12/05 02:54:55;;;;;;;7.87;4.60;;;;;;;-1.97;80.73;102792.91;1751222;80;27461;-61
2022/12/05 02:57:25;;;;;;;10.08;5.25;;;;;;;-1.94;80.62;102794.23;1765647;80;25750;-61
2022/12/05 02:59:51;;;;;;;7.75;4.62;;;;;;;-1.91;80.63;102784.97;1789123;80;25776;-61
2022/12/05 03:02:27;;;;;;;6.75;4.60;;;;;;;-1.92;80.66;102784.53;1766743;80;25712;-61
2022/12/05 03:05:04;;;;;;;6.60;4.25;;;;;;;-1.91;80.66;102777.05;1779648;80;25821;-61
2022/12/05 03:07:32;;;;;;;7.97;4.58;;;;;;;-1.88;80.61;102780.11;1743107;80;27520;-61
2022/12/05 03:10:10;;;;;;;6.70;4.62;;;;;;;-1.86;80.61;102786.72;1793875;79;26320;-61
2022/12/05 03:12:44;;;;;;;9.40;5.45;;;;;;;-1.87;80.49;102777.05;1784841;80;25765;-62
2022/12/05 03:15:23;;;;;;;8.18;5.35;;;;;;;-1.87;80.51;102782.33;1773059;80;26516;-62
2022/12/05 03:18:03;;;;;;;8.08;5.00;;;;;;;-1.85;80.48;102780.11;1761559;80;25818;-61
2022/12/05 03:20:40;;;;;;;9.93;4.70;;;;;;;-1.86;80.45;102785.41;1761857;80;27482;-61
2022/12/05 03:23:20;;;;;;;14.07;4.97;;;;;;;-1.86;80.44;102782.31;1790430;79;25763;-61
2022/12/05 03:26:13;;;;;;;12.60;5.10;;;;;;;-1.86;80.29;102782.77;1792810;80;25837;-62
2022/12/05 03:29:12;;;;;;;11.12;5.03;;;;;;;-1.89;80.26;102787.62;1792935;80;25778;-61
2022/12/05 03:31:50;;;;;;;14.10;5.25;;;;;;;-1.91;80.28;102783.65;1790079;80;25740;-61
2022/12/05 03:34:45;;;;;;;10.18;4.67;;;;;;;-1.94;80.36;102774.88;1761242;80;27433;-61
2022/12/05 03:37:22;;;;;;;15.23;6.25;;;;;;;-1.94;80.25;102785.00;1762986;80;26420;-61
2022/12/05 03:39:55;;;;;;;8.93;5.33;;;;;;;-1.92;80.33;102789.80;1784535;80;25877;-61
2022/12/05 03:42:30;;;;;;;8.85;5.08;;;;;;;-1.95;80.42;102783.23;1791970;80;25753;-62
2022/12/05 03:45:04;;;;;;;11.20;5.20;;;;;;;-1.94;80.45;102788.95;1793615;80;26213;-61
2022/12/05 03:47:51;;;;;;;12.20;5.00;;;;;;;-1.93;80.42;102786.72;1778679;80;28214;-61
2022/12/05 03:50:26;;;;;;;9.73;4.72;;;;;;;-1.92;80.25;102786.30;1760985;81;25489;-61
2022/12/05 03:52:59;;;;;;;9.08;4.70;;;;;;;-1.96;80.35;102788.08;1774765;80;25601;-61
2022/12/05 03:55:30;;;;;;;14.77;6.07;;;;;;;-1.91;80.34;102786.28;1766058;80;26532;-62
2022/12/05 03:58:00;;;;;;;6.45;4.72;;;;;;;-1.84;80.18;102784.50;1793358;77;25773;-62
2022/12/05 04:00:31;;;;;;;9.10;5.22;;;;;;;-1.77;80.11;102788.00;1769874;79;27481;-62
2022/12/05 04:03:18;;;;;;;10.20;4.72;;;;;;;-1.76;79.82;102781.84;1752001;80;25762;-61
2022/12/05 04:06:02;;;;;;;8.55;5.10;;;;;;;-1.74;79.87;102788.86;1795414;79;25528;-61
2022/12/05 04:08:41;;;;;;;9.78;5.05;;;;;;;-1.68;79.96;102784.43;1778543;79;34866;-62
2022/12/05 04:11:13;;;;;;;8.30;4.87;;;;;;;-1.66;79.89;102783.98;1796322;79;25774;-61
2022/12/05 04:13:51;;;;;;;13.90;5.15;;;;;;;-1.64;79.77;102791.46;1780461;80;27486;-63
2022/12/05 04:17:03;;;;;;;12.33;5.37;;;;;;;-1.60;79.69;102787.91;1758676;81;25722;-62
2022/12/05 04:22:37;;;;;;;10.88;4.15;;;;;;;-1.65;79.43;102788.38;1782518;80;26466;-62
2022/12/05 04:28:27;;;;;;;8.65;4.65;;;;;;;-1.60;79.33;102784.84;1776858;80;27552;-63
2022/12/05 04:31:10;;;;;;;13.00;4.92;;;;;;;-1.61;79.31;102788.36;1766939;80;25436;-62
2022/12/05 04:33:53;;;;;;;8.70;4.00;;;;;;;-1.58;78.82;102780.86;1788463;80;25508;-62
2022/12/05 04:36:39;;;;;;;10.05;4.42;;;;;;;-1.63;78.70;102790.13;1788738;80;25766;-60
2022/12/05 04:39:27;;;;;;;16.95;5.03;;;;;;;-1.67;78.83;102783.55;1755484;81;25706;-62
2022/12/05 04:42:04;;;;;;;8.88;4.90;;;;;;;-1.71;78.86;102777.41;1774367;77;28287;-60
2022/12/05 04:44:45;;;;;;;8.33;4.53;;;;;;;-1.77;78.96;102790.19;1788816;80;26168;-63
2022/12/05 04:47:14;;;;;;;14.07;5.37;;;;;;;-1.76;79.09;102780.07;1787291;77;25810;-61
2022/12/05 04:49:44;;;;;;;10.93;5.40;;;;;;;-1.81;79.05;102780.97;1785944;80;25726;-61
2022/12/05 04:52:12;;;;;;;13.62;5.78;;;;;;;-1.81;79.10;102776.59;1797135;77;25765;-60
2022/12/05 04:54:53;;;;;;;12.82;5.85;;;;;;;-1.78;79.19;102773.05;1822147;77;27515;-60
2022/12/05 04:57:28;;;;;;;13.72;5.70;;;;;;;-1.80;79.25;102772.17;1786312;78;25871;-60
2022/12/05 04:59:54;;;;;;;11.93;5.30;;;;;;;-1.80;79.21;102775.71;1772609;80;25678;-61
2022/12/05 05:02:38;;;;;;;12.95;5.62;;;;;;;-1.82;79.17;102770.88;1818138;78;25769;-61
2022/12/05 05:05:08;;;;;;;;;;;;;;;-1.83;79.31;102779.67;1759119;80;25882;-60
2022/12/05 05:07:51;;;;;;;15.55;6.55;;;;;;;-1.82;79.41;102773.94;1802277;79;27483;-61
2022/12/05 05:10:26;;;;;;;17.73;6.23;;;;;;;-1.84;79.36;102775.73;1786879;80;25445;-61
2022/12/05 05:12:54;;;;;;;21.97;6.25;;;;;;;-1.80;79.21;102775.71;1777273;80;25713;-61
2022/12/05 05:15:20;;;;;;;16.67;6.80;;;;;;;-1.78;79.29;102775.23;1818983;78;26452;-61
2022/12/05 05:17:47;;;;;;;11.18;5.45;;;;;;;-1.74;79.33;102778.73;1796784;78;25729;-61
2022/12/05 05:20:26;;;;;;;13.85;6.47;;;;;;;-1.72;79.16;102770.38;1760082;80;27455;-62
2022/12/05 05:22:56;;;;;;;13.58;6.92;;;;;;;-1.75;79.06;102767.31;1761860;80;25832;-62
2022/12/05 05:25:24;;;;;;;13.58;6.65;;;;;;;-1.77;79.14;102771.72;1786746;80;25773;-62
2022/12/05 05:27:54;;;;;;;24.95;6.60;;;;;;;-1.76;79.27;102767.33;1770103;80;25685;-62
2022/12/05 05:30:23;;;;;;;15.60;7.15;;;;;;;-1.72;79.24;102772.15;1768416;80;25730;-62
2022/12/05 05:32:50;;;;;;;18.15;6.40;;;;;;;-1.69;79.16;102769.05;1775734;80;27484;-62
2022/12/05 05:35:17;;;;;;;10.35;6.55;;;;;;;-1.69;79.04;102775.65;1780231;80;25790;-62
2022/12/05 05:37:44;;;;;;;11.97;6.20;;;;;;;-1.65;79.16;102779.14;1757572;80;26247;-62
2022/12/05 05:40:13;;;;;;;14.40;6.75;;;;;;;-1.62;78.94;102776.05;1759245;81;25708;-61
2022/12/05 05:42:48;;;;;;;17.12;5.90;;;;;;;-1.62;78.76;102772.55;1759552;80;25783;-61
2022/12/05 05:45:15;;;;;;;10.88;6.50;;;;;;;-1.59;78.75;102777.36;1757417;80;28496;-60
2022/12/05 05:47:43;;;;;;;18.20;6.08;;;;;;;-1.57;78.78;102780.84;1774079;80;25717;-60
2022/12/05 05:50:11;;;;;;;15.00;6.00;;;;;;;-1.53;78.77;102784.80;1791328;80;25542;-61
2022/12/05 05:52:38;;;;;;;15.63;6.60;;;;;;;-1.53;78.53;102783.48;1774378;80;25735;-60
2022/12/05 05:55:07;;;;;;;10.85;5.15;;;;;;;-1.54;78.46;102778.66;1772416;80;25827;-61
2022/12/05 05:57:35;;;;;;;15.72;6.47;;;;;;;-1.55;78.48;102787.88;1767056;80;27528;-61
2022/12/05 06:00:06;;;;;;;18.85;6.80;;;;;;;-1.56;78.76;102789.66;1784932;80;25734;-61
2022/12/05 06:02:34;;;;;;;20.00;7.80;;;;;;;-1.52;78.75;102791.84;1771972;80;26576;-61
2022/12/05 06:05:02;;;;;;;17.67;7.85;;;;;;;-1.48;78.65;102792.27;1791196;80;25583;-61
2022/12/05 06:07:29;;;;;;;24.82;8.75;;;;;;;-1.46;78.59;102791.36;1785150;80;25805;-61
2022/12/05 06:09:56;;;;;;;15.75;7.60;;;;;;;-1.42;78.50;102781.66;1791180;80;27439;-61
2022/12/05 06:12:23;;;;;;;17.75;8.15;;;;;;;-1.40;78.49;102790.88;1785959;80;25741;-61
2022/12/05 06:14:50;;;;;;;17.65;7.85;;;;;;;-1.35;78.72;102789.11;1759499;80;25775;-61
2022/12/05 06:17:18;;;;;;;16.12;8.00;;;;;;;-1.33;78.15;102786.88;1780572;80;25726;-60
2022/12/05 06:19:45;;;;;;;18.10;8.03;;;;;;;-1.37;78.17;102790.41;1790542;80;26143;-61
2022/12/05 06:22:11;;;;;;;16.97;8.13;;;;;;;-1.37;78.37;102794.38;1786938;80;27421;-61
2022/12/05 06:24:38;;;;;;;17.17;7.58;;;;;;;-1.38;78.43;102797.03;1783989;80;25472;-61
2022/12/05 06:27:05;;;;;;;21.60;6.17;;;;;;;-1.32;78.42;102793.03;1781773;80;26690;-61
2022/12/05 06:29:34;;;;;;;18.25;6.85;;;;;;;-1.31;78.31;102795.69;1774286;80;25660;-61
2022/12/05 06:32:01;;;;;;;17.10;7.80;;;;;;;-1.30;78.23;102791.27;1767828;80;25822;-61
2022/12/05 06:34:28;;;;;;;14.90;7.53;;;;;;;-1.30;78.12;102794.77;1756231;80;27457;-60
2022/12/05 06:36:55;;;;;;;18.20;7.58;;;;;;;-1.27;78.22;102794.76;1756021;80;25727;-61
2022/12/05 06:39:22;;;;;;;18.23;6.03;;;;;;;-1.23;78.38;102792.97;1755939;81;26082;-60
2022/12/05 06:41:49;;;;;;;51.37;7.35;;;;;;;-1.24;77.99;102801.78;1756703;80;26256;-60
2022/12/05 06:44:15;;;;;;;88.03;9.28;;;;;;;-1.24;78.10;102803.09;1759190;81;25802;-60
2022/12/05 06:46:42;;;;;;;18.62;6.67;;;;;;;-1.19;78.12;102804.39;1759998;80;27307;-61
2022/12/05 06:49:10;;;;;;;14.25;6.17;;;;;;;-1.19;78.16;102796.04;1790517;80;25820;-60
2022/12/05 06:51:37;;;;;;;14.98;6.67;;;;;;;-1.15;78.08;102799.08;1790492;80;25785;-61
2022/12/05 06:54:03;;;;;;;15.88;6.08;;;;;;;-1.14;77.86;102801.30;1788451;80;26106;-61
2022/12/05 06:56:30;;;;;;;16.23;6.15;;;;;;;-1.15;77.89;102797.76;1790482;80;25770;-61
2022/12/05 06:58:57;;;;;;;11.50;6.40;;;;;;;-1.11;77.94;102803.47;1785050;80;29633;-61
2022/12/05 07:01:45;;;;;;;17.60;7.95;;;;;;;-1.07;77.70;102798.14;1756924;80;25450;-61
2022/12/05 07:04:23;;;;;;;14.18;6.35;;;;;;;-1.08;77.76;102805.20;1759302;80;25726;-60
2022/12/05 07:06:51;;;;;;;12.20;5.70;;;;;;;-1.05;77.85;102801.66;1787795;80;25830;-62
2022/12/05 07:09:22;;;;;;;12.63;7.67;;;;;;;-1.08;77.67;102797.28;1780362;80;26188;-61
2022/12/05 07:11:50;;;;;;;20.50;8.25;;;;;;;-1.03;77.63;102799.89;1790897;80;27519;-61
2022/12/05 07:14:17;;;;;;;23.30;12.53;;;;;;;-1.01;77.59;102800.77;1767970;80;25822;-61
2022/12/05 07:16:44;;;;;;;14.45;8.40;;;;;;;-1.01;77.16;102805.59;1800764;78;26440;-61
2022/12/05 07:19:11;;;;;;;22.87;6.87;;;;;;;-1.06;77.07;102814.42;1781754;77;26149;-61
2022/12/05 07:21:38;;;;;;;12.93;5.67;;;;;;;-1.12;77.07;102808.77;1807418;78;25781;-61
2022/12/05 07:24:04;;;;;;;15.03;5.85;;;;;;;-1.16;77.19;102807.88;1761584;80;28426;-61
2022/12/05 07:26:31;;;;;;;15.25;6.12;;;;;;;-1.18;77.43;102810.11;1766503;80;25805;-61
2022/12/05 07:28:58;;;;;;;18.17;6.12;;;;;;;-1.20;77.47;102804.84;1791769;78;26742;-61
2022/12/05 07:31:25;;;;;;;25.32;7.62;;;;;;;-1.23;77.64;102805.31;1769719;80;25778;-61
2022/12/05 07:33:52;;;;;;;15.83;5.83;;;;;;;-1.30;77.77;102808.43;1763027;80;26198;-61
2022/12/05 07:36:22;;;;;;;19.98;7.00;;;;;;;-1.30;78.11;102801.38;1762441;80;27456;-61
2022/12/05 07:38:55;;;;;;;12.00;5.90;;;;;;;-1.32;78.22;102810.20;1816103;77;26130;-61
2022/12/05 07:41:26;;;;;;;;;;;;;;;-1.29;78.30;102806.22;1774944;78;25763;-62
2022/12/05 07:43:55;;;;;;;14.38;5.15;;;;;;;-1.21;78.51;102807.51;1780659;80;25610;-61
2022/12/05 07:46:23;;;;;;;13.48;6.55;;;;;;;-1.08;78.34;102809.17;1774132;80;25704;-61
2022/12/05 07:48:51;;;;;;;11.35;5.20;;;;;;;-1.04;78.10;102812.66;1750705;79;27437;-61
2022/12/05 07:51:19;;;;;;;9.65;5.25;;;;;;;-0.96;78.16;102818.34;1782818;79;25719;-61
2022/12/05 07:53:47;;;;;;;14.58;6.10;;;;;;;-0.89;77.83;102827.53;1797353;77;25753;-62
2022/12/05 07:56:16;;;;;;;13.32;6.10;;;;;;;-0.81;77.60;102828.34;1783777;79;25718;-61
2022/12/05 07:58:46;;;;;;;11.68;5.83;;;;;;;-0.80;77.58;102828.78;1783613;77;25734;-62
2022/12/05 08:01:19;;;;;;;12.18;5.78;;;;;;;-0.78;77.21;102828.33;1789086;77;28065;-61
2022/12/05 08:03:47;;;;;;;11.83;5.58;;;;;;;-0.73;77.38;102823.88;1788206;77;32984;-62
2022/12/05 08:06:18;;;;;;;18.40;5.62;;;;;;;-0.66;76.80;102828.21;1791304;80;25792;-61
2022/12/05 08:08:49;;;;;;;11.60;5.87;;;;;;;-0.58;76.30;102828.62;1787993;80;25509;-61
2022/12/05 08:11:21;;;;;;;7.97;5.03;;;;;;;-0.58;76.37;102829.48;1780419;80;25754;-61
2022/12/05 08:13:49;;;;;;;10.95;4.28;;;;;;;-0.54;76.58;102827.22;1786157;80;27615;-61
2022/12/05 08:16:21;;;;;;;13.22;5.25;;;;;;;-0.52;76.40;102829.42;1793275;80;25766;-61
2022/12/05 08:18:48;;;;;;;7.30;4.55;;;;;;;-0.50;76.69;102822.81;1782817;80;25725;-61
2022/12/05 08:21:19;;;;;;;9.18;4.50;;;;;;;-0.47;76.69;102830.70;1752773;80;25633;-61
2022/12/05 08:23:46;;;;;;;7.80;4.25;;;;;;;-0.46;76.53;102824.98;1783654;78;25769;-62
2022/12/05 08:26:26;;;;;;;9.55;5.12;;;;;;;-0.43;76.60;102823.61;1793070;80;27449;-61
2022/12/05 08:28:58;;;;;;;10.10;4.95;;;;;;;-0.43;76.20;102822.28;1793667;80;25828;-61
2022/12/05 08:31:27;;;;;;;8.63;5.65;;;;;;;-0.40;76.31;102821.81;1762257;81;25734;-61
2022/12/05 08:33:57;;;;;;;13.03;5.45;;;;;;;-0.34;75.77;102823.09;1762034;81;25723;-61
2022/12/05 08:36:25;;;;;;;12.63;5.53;;;;;;;-0.36;75.88;102818.26;1796351;79;25805;-61
2022/12/05 08:38:58;;;;;;;12.82;6.67;;;;;;;-0.38;75.94;102823.14;1802482;79;27608;-61
2022/12/05 08:41:29;;;;;;;16.75;6.42;;;;;;;-0.40;75.67;102820.95;1790728;79;25894;-61
2022/12/05 08:44:02;;;;;;;10.60;6.08;;;;;;;-0.42;75.97;102809.50;1770142;81;25714;-61
2022/12/05 08:46:33;;;;;;;16.83;6.80;;;;;;;-0.47;75.84;102805.58;1781394;79;26448;-61
2022/12/05 08:49:01;;;;;;;9.93;5.03;;;;;;;-0.57;75.94;102799.94;1769985;80;25433;-61
2022/12/05 08:51:28;;;;;;;12.15;5.20;;;;;;;-0.62;76.11;102805.73;1775524;80;28319;-61
2022/12/05 08:53:55;;;;;;;10.80;5.40;;;;;;;-0.62;76.37;102801.30;1778873;80;25529;-61
2022/12/05 08:56:23;;;;;;;9.15;4.87;;;;;;;-0.56;76.44;102792.45;1780876;79;25773;-61
2022/12/05 08:58:50;;;;;;;10.68;5.75;;;;;;;-0.54;76.40;102784.06;1780940;79;25782;-61
2022/12/05 09:01:20;;;;;;;7.55;4.95;;;;;;;-0.51;76.47;102783.58;1770606;81;25770;-62
2022/12/05 09:03:48;;;;;;;6.67;4.85;;;;;;;-0.44;76.01;102784.41;1776516;80;28231;-61
2022/12/05 09:06:22;;;;;;;7.37;4.53;;;;;;;-0.49;76.01;102781.80;1780951;80;25750;-61
2022/12/05 09:08:55;;;;;;;10.95;5.20;;;;;;;-0.44;75.82;102769.86;1754234;79;25718;-61
2022/12/05 09:11:25;;;;;;;11.28;5.50;;;;;;;-0.43;75.89;102768.97;1736835;82;25835;-62
2022/12/05 09:13:56;;;;;;;13.03;5.78;;;;;;;-0.35;75.70;102761.83;1736388;82;25454;-61
2022/12/05 09:16:30;;;;;;;8.35;4.97;;;;;;;-0.27;75.54;102763.05;1774110;80;27545;-61
2022/12/05 09:18:57;;;;;;;10.15;4.62;;;;;;;-0.24;75.70;102759.06;1780597;80;25518;-61
2022/12/05 09:21:29;;;;;;;7.90;4.45;;;;;;;-0.12;75.47;102758.50;1781084;79;25770;-61
2022/12/05 09:24:00;;;;;;;7.08;4.33;;;;;;;-0.07;75.05;102748.30;1783584;79;25741;-61
2022/12/05 09:26:29;;;;;;;7.55;5.12;;;;;;;-0.12;74.81;102749.23;1758711;81;26013;-61
2022/12/05 09:28:57;;;;;;;12.90;6.17;;;;;;;-0.09;74.79;102742.14;1770080;81;27687;-61
2022/12/05 09:31:26;;;;;;;9.08;4.95;;;;;;;-0.11;74.79;102746.56;1778629;80;25718;-61
2022/12/05 09:33:53;;;;;;;10.72;4.90;;;;;;;-0.06;74.93;102740.78;1749742;81;25797;-61
2022/12/05 09:36:30;;;;;;;9.28;5.75;;;;;;;0.06;74.99;102739.75;1750822;81;25635;-61
2022/12/05 09:39:03;;;;;;;7.75;5.55;;;;;;;0.11;75.06;102741.02;1752409;81;26250;-60
2022/12/05 09:45:02;;;;;;;9.45;4.33;;;;;;;0.15;74.37;102744.03;1752262;81;25738;-61
2022/12/05 09:47:59;;;;;;;8.08;4.72;;;;;;;0.14;74.12;102739.20;1752317;81;25801;-61
2022/12/05 09:50:32;;;;;;;8.50;4.85;;;;;;;0.15;74.50;102736.98;1761907;80;25782;-61
2022/12/05 09:53:22;;;;;;;9.80;5.28;;;;;;;0.15;73.81;102730.37;1765850;80;25728;-61
2022/12/05 09:56:03;;;;;;;8.10;4.58;;;;;;;0.09;73.56;102732.22;1783816;80;28228;-61
2022/12/05 09:58:44;;;;;;;11.00;4.47;;;;;;;0.05;73.55;102721.22;1783569;79;26432;-61
2022/12/05 10:01:47;;;;;;;18.15;5.60;;;;;;;-0.01;73.71;102722.20;1783663;79;25763;-61
2022/12/05 10:04:47;;;;;;;12.93;5.30;;;;;;;-0.03;73.60;102720.88;1778049;79;26429;-61
2022/12/05 10:07:45;;;;;;;15.00;6.53;;;;;;;-0.02;73.75;102721.78;1781798;79;26561;-61
2022/12/05 10:10:36;;;;;;;16.77;6.87;;;;;;;-0.05;73.91;102726.67;1778600;79;27687;-61
2022/12/05 10:13:08;;;;;;;13.28;6.00;;;;;;;-0.09;73.68;102714.36;1784712;79;25766;-61
2022/12/05 10:15:48;;;;;;;7.60;4.50;;;;;;;-0.15;73.74;102710.47;1767549;80;25715;-61
2022/12/05 10:18:41;;;;;;;11.65;6.20;;;;;;;-0.24;73.69;102707.48;1764847;80;25719;-61
2022/12/05 10:21:22;;;;;;;14.65;6.12;;;;;;;-0.28;73.88;102704.89;1763582;80;25742;-61
2022/12/05 10:23:59;;;;;;;10.65;5.67;;;;;;;-0.27;74.21;102706.64;1762580;79;28106;-61
2022/12/05 10:26:43;;;;;;;13.30;5.40;;;;;;;-0.20;74.30;102696.41;1780677;79;25728;-61
2022/12/05 10:29:39;;;;;;;11.78;5.92;;;;;;;-0.16;74.32;102700.78;1784899;79;25852;-61
2022/12/05 10:32:17;;;;;;;15.55;7.42;;;;;;;-0.06;74.11;102702.42;1783712;80;27524;-60
2022/12/05 10:34:45;;;;;;;11.28;6.08;;;;;;;-0.03;74.19;102697.06;1783321;80;25720;-61
2022/12/05 10:37:22;;;;;;;9.05;5.37;;;;;;;0.05;73.92;102687.72;1777423;80;27270;-61
2022/12/05 10:39:52;;;;;;;9.20;6.20;;;;;;;0.09;73.61;102681.93;1777784;80;26029;-61
2022/12/05 10:42:32;;;;;;;10.55;5.92;;;;;;;0.14;73.27;102678.76;1768878;80;25731;-61
2022/12/05 10:45:04;;;;;;;13.43;6.50;;;;;;;0.23;73.64;102679.95;1749850;82;25748;-60
2022/12/05 10:47:32;;;;;;;13.25;5.97;;;;;;;0.38;73.36;102679.31;1758749;80;25967;-61
2022/12/05 10:50:08;;;;;;;16.02;6.78;;;;;;;0.51;72.99;102682.19;1780758;80;27531;-60
2022/12/05 10:52:35;;;;;;;12.50;5.90;;;;;;;0.60;72.85;102675.42;1780856;78;25789;-61
2022/12/05 10:55:07;;;;;;;14.00;5.45;;;;;;;0.59;72.33;102676.31;1771824;80;25741;-61
2022/12/05 10:57:33;;;;;;;12.03;6.37;;;;;;;0.64;72.47;102679.35;1781311;80;25703;-61
2022/12/05 11:00:16;;;;;;;11.88;6.72;;;;;;;0.61;72.03;102669.22;1780565;79;25706;-61
2022/12/05 11:02:47;;;;;;;14.55;6.40;;;;;;;0.66;71.37;102675.77;1780889;80;27470;-61
2022/12/05 11:05:14;;;;;;;18.35;6.10;;;;;;;0.52;71.47;102670.70;1780591;80;25804;-61
2022/12/05 11:07:48;;;;;;;16.52;6.40;;;;;;;0.40;71.56;102673.55;1780829;79;25836;-61
2022/12/05 11:10:24;;;;;;;12.65;5.67;;;;;;;0.28;71.86;102669.29;1780897;80;25775;-61
2022/12/05 11:12:51;;;;;;;14.90;5.80;;;;;;;0.28;72.24;102663.56;1781060;80;26033;-61
2022/12/05 11:15:23;;;;;;;12.88;6.75;;;;;;;0.30;72.19;102659.56;1780583;80;27475;-61
2022/12/05 11:17:53;;;;;;;9.40;5.97;;;;;;;0.35;72.24;102652.88;1769905;80;25825;-62
2022/12/05 11:20:25;;;;;;;14.60;6.37;;;;;;;0.38;72.36;102647.54;1762228;80;25851;-62
2022/12/05 11:22:59;;;;;;;13.30;4.80;;;;;;;0.40;72.46;102647.94;1781508;79;25821;-62
2022/12/05 11:25:34;;;;;;;21.85;8.90;;;;;;;0.35;72.47;102646.25;1776899;80;26478;-61
2022/12/05 11:28:21;;;;;;;16.35;5.80;;;;;;;0.38;72.52;102634.30;1782014;80;27458;-61
2022/12/05 11:31:12;;;;;;;11.05;5.47;;;;;;;0.40;72.72;102628.08;1779404;80;25818;-61
2022/12/05 11:33:40;;;;;;;18.73;6.67;;;;;;;0.36;72.69;102629.02;1777829;79;25810;-61
2022/12/05 11:36:20;;;;;;;15.38;6.25;;;;;;;0.28;72.88;102627.83;1784171;80;26374;-61
2022/12/05 11:38:47;;;;;;;8.83;5.08;;;;;;;0.30;72.86;102620.74;1781841;80;25735;-61
2022/12/05 11:41:39;;;;;;;11.60;6.50;;;;;;;0.21;73.09;102630.58;1781906;80;27460;-61
2022/12/05 11:44:43;;;;;;;10.28;6.05;;;;;;;0.19;73.25;102634.59;1782070;80;25742;-61
2022/12/05 11:47:45;;;;;;;8.65;5.53;;;;;;;0.17;73.50;102623.14;1782317;80;25810;-61
2022/12/05 11:50:26;;;;;;;17.30;6.78;;;;;;;0.08;73.53;102629.89;1781994;80;25675;-61
2022/12/05 11:53:21;;;;;;;11.43;7.12;;;;;;;0.04;73.67;102623.77;1783282;79;25781;-61
2022/12/05 11:56:19;;;;;;;16.62;9.85;;;;;;;0.06;73.76;102622.42;1762965;81;27478;-61
2022/12/05 11:59:14;;;;;;;12.90;7.55;;;;;;;0.05;74.22;102609.65;1762934;81;25898;-61
2022/12/05 12:02:26;;;;;;;15.65;6.83;;;;;;;-0.03;74.11;102617.69;1762736;81;25790;-61